Time;durP1;ratioP1;P1;durP2;ratioP2;P2;SDS_P1;SDS_P2;PMS_P1;PMS_P2;Temp;Humidity;BMP_temperature;BMP_pressure;BME280_temperature;BME280_humidity;BME280_pressure;Samples;Min_cycle;Max_cycle;Signal;HPM_P1;HPM_P2
2021/05/13 00:00:56;;;;;;;16.52;13.80;;;11.30;84.40;;;9.46;84.35;95311.34;4982711;28;20073;-71
2021/05/13 00:03:22;;;;;;;17.45;13.27;;;11.30;84.00;;;9.45;84.92;95308.91;5011307;28;20053;-70
2021/05/13 00:05:48;;;;;;;18.20;14.10;;;11.20;84.50;;;9.43;84.94;95310.94;5011391;28;20231;-71
2021/05/13 00:08:13;;;;;;;17.00;13.05;;;11.10;84.80;;;9.42;85.27;95309.31;5010805;28;20405;-70
2021/05/13 00:10:40;;;;;;;17.10;13.15;;;11.10;84.70;;;9.40;85.12;95311.34;5010868;28;20058;-70
2021/05/13 00:13:06;;;;;;;16.63;13.07;;;11.10;84.70;;;9.38;84.39;95310.75;5006566;28;20073;-70
2021/05/13 00:15:35;;;;;;;15.50;13.32;;;11.10;84.60;;;9.39;84.90;95305.28;5010684;28;20038;-71
2021/05/13 00:18:01;;;;;;;16.23;12.93;;;11.20;84.60;;;9.39;85.22;95299.22;4994984;28;20068;-70
2021/05/13 00:20:29;;;;;;;17.05;13.40;;;11.10;84.60;;;9.37;84.59;95296.00;4994723;28;20468;-71
2021/05/13 00:22:55;;;;;;;16.15;12.35;;;11.10;84.80;;;9.39;85.30;95293.97;4972021;28;20432;-71
2021/05/13 00:25:21;;;;;;;22.60;14.18;;;11.10;84.80;;;9.38;84.19;95297.63;5012193;28;20030;-71
2021/05/13 00:27:48;;;;;;;16.58;13.05;;;11.10;84.80;;;9.37;84.67;95296.81;4979144;28;20056;-70
2021/05/13 00:30:14;;;;;;;19.25;13.63;;;11.10;84.70;;;9.36;84.76;95286.50;4994762;28;20168;-70
2021/05/13 00:32:40;;;;;;;19.02;12.55;;;11.10;84.30;;;9.34;84.17;95280.66;5010932;28;20034;-70
2021/05/13 00:35:07;;;;;;;15.68;12.18;;;11.00;84.50;;;9.32;85.06;95282.69;5010369;28;20088;-70
2021/05/13 00:37:33;;;;;;;16.08;12.40;;;11.00;84.30;;;9.31;84.38;95275.81;4994972;28;20033;-70
2021/05/13 00:39:59;;;;;;;19.50;12.40;;;10.90;84.40;;;9.30;84.57;95275.00;5010755;28;20409;-70
2021/05/13 00:42:25;;;;;;;14.20;11.15;;;11.00;84.10;;;9.29;85.14;95276.03;5010725;28;20026;-70
2021/05/13 00:45:00;;;;;;;16.38;12.57;;;10.90;84.30;;;9.28;84.39;95265.69;5010691;28;20030;-70
2021/05/13 00:47:27;;;;;;;19.98;13.27;;;10.80;84.50;;;9.25;83.98;95266.09;4994450;28;20030;-71
2021/05/13 00:49:53;;;;;;;17.85;13.20;;;10.90;84.40;;;9.25;84.86;95266.91;5010444;28;20109;-71
2021/05/13 00:52:20;;;;;;;16.23;12.25;;;10.90;84.40;;;9.25;84.17;95256.41;5011675;28;20072;-70
2021/05/13 00:54:46;;;;;;;17.10;13.10;;;10.90;84.30;;;9.24;84.30;95260.03;4994109;28;20033;-71
2021/05/13 00:57:12;;;;;;;17.58;12.82;;;10.90;84.40;;;9.24;84.76;95254.78;4993828;28;20382;-70
2021/05/13 00:59:41;;;;;;;17.85;13.40;;;10.90;84.40;;;9.24;84.71;95259.25;5010377;28;20126;-70
2021/05/13 01:02:06;;;;;;;16.42;13.23;;;10.90;84.20;;;9.21;84.15;95260.44;4994127;28;20049;-70
2021/05/13 01:04:32;;;;;;;16.40;13.45;;;10.90;84.40;;;9.21;83.97;95257.81;5026878;28;20116;-70
2021/05/13 01:06:58;;;;;;;17.27;13.52;;;10.80;84.20;;;9.18;83.86;95259.03;5010400;28;20038;-70
2021/05/13 01:09:26;;;;;;;16.45;13.35;;;10.90;84.30;;;9.18;83.98;95264.28;4993640;28;20077;-70
2021/05/13 01:11:59;;;;;;;16.70;13.07;;;10.90;84.10;;;9.16;84.56;95261.06;4994252;28;20050;-70
2021/05/13 01:14:28;;;;;;;17.98;13.27;;;10.90;84.20;;;9.15;83.86;95251.56;4995123;28;20034;-70
2021/05/13 01:17:01;;;;;;;17.67;13.32;;;10.90;84.00;;;9.15;84.03;95259.44;4978999;28;20501;-71
2021/05/13 01:19:27;;;;;;;17.50;13.88;;;10.80;83.90;;;9.14;83.86;95259.66;4993189;28;20040;-70
2021/05/13 01:21:53;;;;;;;18.25;13.32;;;10.90;84.00;;;9.14;84.82;95265.69;4993973;28;20509;-70
2021/05/13 01:24:18;;;;;;;16.08;13.23;;;10.90;84.10;;;9.12;84.37;95259.84;5009943;28;20198;-70
2021/05/13 01:26:46;;;;;;;19.05;13.57;;;10.90;83.90;;;9.14;84.63;95264.91;5023409;28;20036;-70
2021/05/13 01:29:19;;;;;;;19.35;13.57;;;11.00;83.80;;;9.12;84.40;95259.84;5002922;28;20021;-70
2021/05/13 01:31:46;;;;;;;18.67;13.45;;;10.90;83.80;;;9.14;84.54;95270.94;4994369;28;20030;-70
2021/05/13 01:34:12;;;;;;;15.70;12.30;;;10.90;83.90;;;9.14;84.49;95257.03;4993361;28;20065;-70
2021/05/13 01:36:38;;;;;;;16.38;12.55;;;10.90;83.80;;;9.14;84.88;95255.22;4993975;28;20030;-70
2021/05/13 01:39:06;;;;;;;16.02;12.98;;;11.00;83.90;;;9.15;84.15;95256.81;5009047;28;20083;-69
2021/05/13 01:41:33;;;;;;;18.85;13.02;;;11.00;83.80;;;9.15;84.46;95254.19;5010225;28;20033;-70
2021/05/13 01:43:58;;;;;;;16.30;13.38;;;11.00;84.00;;;9.16;84.11;95247.94;4993029;28;20743;-70
2021/05/13 01:46:24;;;;;;;15.63;12.65;;;11.00;84.10;;;9.16;84.45;95255.81;5011087;28;20058;-70
2021/05/13 01:48:50;;;;;;;16.50;13.20;;;11.00;84.10;;;9.16;84.24;95255.81;4989994;28;20045;-70
2021/05/13 01:51:16;;;;;;;15.13;12.65;;;11.00;84.00;;;9.17;84.22;95254.81;4992910;28;20053;-70
2021/05/13 01:53:42;;;;;;;22.55;14.18;;;11.00;84.10;;;9.15;84.30;95246.31;5009552;28;20089;-70
2021/05/13 01:56:08;;;;;;;16.50;13.55;;;11.00;84.20;;;9.15;84.74;95251.56;4992105;28;20145;-70
2021/05/13 01:58:34;;;;;;;17.65;13.00;;;11.00;84.20;;;9.15;84.67;95245.53;4993242;28;20472;-71
2021/05/13 02:01:00;;;;;;;18.42;13.77;;;11.00;84.00;;;9.14;84.19;95249.97;5008838;28;20030;-70
2021/05/13 02:03:26;;;;;;;19.23;13.98;;;11.00;84.20;;;9.15;85.26;95240.28;4991696;28;20037;-70
2021/05/13 02:05:53;;;;;;;18.95;13.98;;;10.90;83.90;;;9.14;84.97;95228.97;4989799;28;20038;-71
2021/05/13 02:08:18;;;;;;;21.83;14.23;;;10.90;84.20;;;9.11;84.63;95234.63;5009438;28;20045;-70
2021/05/13 02:10:44;;;;;;;17.35;13.85;;;10.80;84.40;;;9.11;84.91;95225.94;5008888;28;20481;-70
2021/05/13 02:13:10;;;;;;;18.92;14.73;;;10.80;84.60;;;9.08;84.98;95224.53;4992121;28;20577;-70
2021/05/13 02:15:36;;;;;;;17.30;14.32;;;10.80;84.70;;;9.09;85.12;95225.34;5009248;28;20551;-70
2021/05/13 02:18:01;;;;;;;19.75;14.50;;;10.80;84.80;;;9.08;84.45;95229.78;5009069;28;20045;-70
2021/05/13 02:20:27;;;;;;;21.02;15.63;;;10.80;84.80;;;9.06;84.61;95220.50;4992719;28;20042;-70
2021/05/13 02:22:54;;;;;;;20.00;15.80;;;10.80;85.00;;;9.06;84.73;95225.75;5008584;28;20331;-70
2021/05/13 02:25:20;;;;;;;20.80;15.27;;;10.80;85.00;;;9.05;85.13;95224.94;5008708;28;20520;-70
2021/05/13 02:27:45;;;;;;;24.23;17.17;;;10.80;85.10;;;9.03;85.36;95216.44;4992650;28;20025;-70
2021/05/13 02:30:14;;;;;;;20.85;15.63;;;10.80;85.20;;;9.03;85.35;95219.06;4991966;28;20403;-70
2021/05/13 02:32:40;;;;;;;23.92;15.93;;;10.80;85.10;;;9.04;85.79;95217.25;4992990;28;20060;-70
2021/05/13 02:35:07;;;;;;;22.77;17.02;;;10.90;84.90;;;9.03;85.48;95216.44;4992455;28;20557;-70
2021/05/13 02:37:33;;;;;;;25.05;17.42;;;10.80;84.90;;;9.02;85.16;95214.81;5008554;28;20498;-70
2021/05/13 02:39:58;;;;;;;25.90;18.02;;;10.80;85.30;;;9.02;85.15;95214.81;4975936;28;20096;-70
2021/05/13 02:42:24;;;;;;;21.77;18.42;;;10.80;85.40;;;9.01;85.36;95207.97;5010449;28;20034;-70
2021/05/13 02:44:50;;;;;;;24.98;18.70;;;10.70;85.80;;;9.00;85.03;95208.97;4992341;28;20033;-70
2021/05/13 02:47:15;;;;;;;24.83;19.65;;;10.70;85.90;;;8.99;85.82;95209.97;4991995;28;20113;-70
2021/05/13 02:49:41;;;;;;;26.83;20.30;;;10.70;85.90;;;8.97;85.46;95212.00;4991904;28;20045;-70
2021/05/13 02:52:07;;;;;;;25.63;20.15;;;10.60;86.20;;;8.97;85.51;95209.38;4992315;28;20030;-70
2021/05/13 02:54:33;;;;;;;26.65;20.65;;;10.70;86.00;;;8.98;85.96;95203.13;5008741;28;20123;-70
2021/05/13 02:56:58;;;;;;;24.35;19.30;;;10.70;86.20;;;8.97;85.98;95201.50;5008359;28;20022;-70
2021/05/13 02:59:43;;;;;;;25.55;20.08;;;10.70;86.10;;;8.98;85.60;95205.75;5007730;28;20038;-70
2021/05/13 03:02:09;;;;;;;26.98;20.67;;;10.70;86.20;;;8.95;85.75;95200.91;4995068;28;20034;-70
2021/05/13 03:04:35;;;;;;;26.10;20.08;;;10.70;86.10;;;8.95;85.47;95203.53;5008142;28;20042;-70
2021/05/13 03:07:01;;;;;;;23.52;19.73;;;10.60;86.30;;;8.94;86.22;95203.72;5008637;28;20041;-71
2021/05/13 03:09:27;;;;;;;28.85;21.60;;;10.60;86.30;;;8.90;86.48;95196.28;5007428;28;20428;-70
2021/05/13 03:11:52;;;;;;;29.15;21.27;;;10.60;86.60;;;8.90;85.75;95195.47;5024972;28;20026;-70
2021/05/13 03:14:18;;;;;;;31.55;22.02;;;10.60;86.60;;;8.90;86.12;95200.72;4991823;28;20042;-70
2021/05/13 03:16:44;;;;;;;27.33;21.90;;;10.60;86.60;;;8.89;85.75;95199.91;5009856;28;20029;-70
2021/05/13 03:19:19;;;;;;;27.92;21.55;;;10.60;86.50;;;8.89;86.33;95196.47;5008880;28;20038;-70
2021/05/13 03:21:46;;;;;;;26.17;21.80;;;10.60;86.60;;;8.89;86.19;95199.91;4998930;28;20516;-69
2021/05/13 03:29:04;;;;;;;26.42;21.70;;;10.50;86.70;;;8.87;86.21;95196.66;5007774;28;20054;-69
2021/05/13 03:31:29;;;;;;;27.92;20.88;;;10.60;86.70;;;8.88;86.27;95192.22;4975960;28;20030;-70
2021/05/13 03:33:55;;;;;;;30.13;23.40;;;10.60;86.60;;;8.90;86.50;95193.66;5008235;28;20665;-70
2021/05/13 03:36:21;;;;;;;29.75;22.85;;;10.60;86.60;;;8.92;86.35;95195.25;4992332;28;20038;-70
2021/05/13 03:38:46;;;;;;;29.20;22.23;;;10.70;86.50;;;8.92;86.79;95197.88;4974936;28;20048;-71
2021/05/13 03:41:12;;;;;;;28.27;22.63;;;10.70;86.30;;;8.92;87.14;95192.63;4991173;28;20531;-69
2021/05/13 03:43:38;;;;;;;28.92;22.92;;;10.70;86.50;;;8.92;86.39;95190.81;4991846;28;20061;-70
2021/05/13 03:46:04;;;;;;;27.38;21.90;;;10.70;86.50;;;8.93;86.24;95195.06;5008300;28;20038;-70
2021/05/13 03:48:29;;;;;;;31.27;21.88;;;10.70;86.30;;;8.93;86.42;95194.25;5007969;28;20072;-70
2021/05/13 03:50:55;;;;;;;28.35;22.30;;;10.70;86.50;;;8.94;86.23;95196.66;5023661;28;20049;-70
2021/05/13 03:53:21;;;;;;;26.55;22.05;;;10.70;86.50;;;8.93;86.24;95189.81;5007705;28;20046;-70
2021/05/13 03:55:51;;;;;;;28.90;22.42;;;10.70;86.30;;;8.98;86.91;95191.81;5007785;28;20081;-70
2021/05/13 03:58:17;;;;;;;27.52;22.55;;;10.80;86.20;;;8.96;86.57;95197.28;4995408;28;20120;-70
2021/05/13 04:01:02;;;;;;;25.40;21.35;;;10.70;86.40;;;8.98;86.99;95203.13;5012254;28;20041;-70
2021/05/13 04:03:28;;;;;;;28.98;21.88;;;10.80;86.10;;;9.00;86.75;95189.81;4994484;28;20521;-70
2021/05/13 04:05:54;;;;;;;28.58;22.15;;;10.90;86.00;;;9.04;86.40;95202.31;5012840;28;20045;-69
2021/05/13 04:08:19;;;;;;;26.75;21.80;;;10.90;86.00;;;9.05;86.39;95198.72;5011610;28;20072;-70
2021/05/13 04:10:45;;;;;;;29.13;22.50;;;10.90;85.80;;;9.04;86.29;95202.31;4995128;28;20046;-70
2021/05/13 04:13:12;;;;;;;28.00;22.65;;;10.90;85.90;;;9.07;87.27;95199.31;5011060;28;20030;-70
2021/05/13 04:15:38;;;;;;;29.48;21.92;;;10.90;86.00;;;9.08;86.27;95197.50;4995087;28;20448;-70
2021/05/13 04:18:04;;;;;;;27.80;22.50;;;10.90;85.90;;;9.10;86.21;95201.53;5011678;28;20106;-70
2021/05/13 04:20:30;;;;;;;28.60;22.13;;;10.90;85.80;;;9.11;86.28;95203.16;5010902;28;20040;-70
2021/05/13 04:22:55;;;;;;;32.30;23.17;;;11.00;85.90;;;9.12;86.21;95199.50;4995067;28;20046;-70
2021/05/13 04:25:21;;;;;;;26.92;21.58;;;10.90;86.00;;;9.12;86.87;95198.72;5010854;28;20088;-70
2021/05/13 04:27:48;;;;;;;32.13;23.67;;;10.90;86.20;;;9.13;86.25;95200.31;5022328;28;20480;-69
2021/05/13 04:30:14;;;;;;;28.50;22.92;;;10.80;86.00;;;9.12;87.02;95198.72;5019661;28;20121;-70
2021/05/13 04:32:40;;;;;;;30.13;23.20;;;10.80;86.30;;;9.12;87.07;95204.75;5010514;28;20544;-70
2021/05/13 04:35:06;;;;;;;30.85;23.52;;;10.80;86.60;;;9.13;86.33;95201.13;4978272;28;20061;-70
2021/05/13 04:37:32;;;;;;;29.90;22.23;;;10.80;86.10;;;9.15;86.86;95203.53;5010942;28;20397;-70
2021/05/13 04:39:58;;;;;;;28.95;21.85;;;10.90;86.20;;;9.17;86.43;95191.84;5010716;28;20088;-71
2021/05/13 04:42:24;;;;;;;27.73;21.17;;;11.00;85.90;;;9.17;86.44;95199.72;5010282;28;20034;-74
2021/05/13 04:44:49;;;;;;;28.40;21.50;;;10.90;86.00;;;9.18;86.09;95198.69;5008642;28;20076;-66
2021/05/13 04:49:51;;;;;;;30.33;22.15;;;10.90;86.10;;;9.19;86.91;95202.94;5010811;28;20088;-74
2021/05/13 04:52:17;;;;;;;27.20;21.65;;;10.90;85.80;;;9.21;86.65;95200.91;4993908;28;20042;-65
2021/05/13 04:54:43;;;;;;;29.83;22.05;;;10.90;86.00;;;9.24;86.47;95201.50;4993409;28;20038;-66
2021/05/13 04:57:09;;;;;;;26.88;21.98;;;11.00;86.10;;;9.25;85.85;95206.56;5008732;28;20030;-66
2021/05/13 04:59:35;;;;;;;28.35;21.88;;;11.10;85.90;;;9.28;85.90;95197.47;5025363;28;20030;-72
2021/05/13 05:02:01;;;;;;;26.88;21.70;;;11.10;85.50;;;9.31;86.78;95194.47;5000516;28;20112;-71
2021/05/13 05:04:26;;;;;;;28.60;22.50;;;11.10;85.30;;;9.32;86.50;95203.94;5012182;28;20030;-72
2021/05/13 05:06:53;;;;;;;24.98;21.52;;;11.10;85.60;;;9.34;85.96;95194.06;5009542;28;20034;-72
2021/05/13 05:09:19;;;;;;;27.95;21.88;;;11.20;85.40;;;9.34;86.20;95196.69;5008223;28;20037;-72
2021/05/13 05:11:44;;;;;;;31.02;23.10;;;11.10;85.50;;;9.35;85.99;95190.41;4976766;28;20030;-72
2021/05/13 05:14:10;;;;;;;29.15;23.60;;;11.10;85.20;;;9.37;86.60;95191.81;5009685;28;20054;-72
2021/05/13 05:16:36;;;;;;;31.58;25.25;;;11.10;85.60;;;9.40;86.01;95193.22;5010189;28;20038;-72
2021/05/13 05:19:02;;;;;;;30.88;25.42;;;11.20;85.90;;;9.47;86.88;95186.16;5011465;28;20421;-72
2021/05/13 05:21:27;;;;;;;30.45;23.33;;;11.40;85.50;;;9.53;86.46;95185.34;5008298;28;20034;-72
2021/05/13 05:23:53;;;;;;;27.88;23.00;;;11.50;84.80;;;9.57;85.88;95181.31;5009240;28;20053;-72
2021/05/13 05:26:19;;;;;;;28.75;23.25;;;11.60;84.60;;;9.65;86.68;95188.16;4992435;28;20034;-72
2021/05/13 05:28:45;;;;;;;39.00;30.17;;;11.60;84.30;;;9.70;86.63;95191.75;4975715;28;20046;-71
2021/05/13 05:31:10;;;;;;;50.95;38.97;;;11.70;84.20;;;9.76;86.31;95190.16;5008741;28;20042;-72
2021/05/13 05:33:36;;;;;;;29.38;24.17;;;11.60;84.20;;;9.80;85.41;95184.28;5010062;28;20088;-72
2021/05/13 05:36:02;;;;;;;25.08;21.30;;;11.70;84.00;;;9.85;85.77;95185.47;5013611;28;20682;-75
2021/05/13 05:38:27;;;;;;;26.23;21.67;;;11.80;84.00;;;9.93;86.09;95187.88;4993261;28;20077;-75
2021/05/13 05:40:53;;;;;;;25.95;22.15;;;12.10;83.40;;;9.99;85.97;95184.44;5009020;28;20041;-74
2021/05/13 05:43:19;;;;;;;27.40;22.83;;;12.00;82.70;;;10.02;85.59;95179.56;5007495;28;20080;-65
2021/05/13 05:45:45;;;;;;;35.72;29.05;;;12.00;83.10;;;10.08;84.59;95188.44;5008962;28;20034;-66
2021/05/13 05:48:11;;;;;;;25.58;21.60;;;12.10;83.00;;;10.14;85.20;95177.88;4992956;28;20053;-65
2021/05/13 05:50:40;;;;;;;25.40;21.63;;;12.10;82.80;;;10.20;84.46;95175.47;5008448;28;20046;-65
2021/05/13 05:53:05;;;;;;;28.55;20.52;;;12.10;82.20;;;10.24;85.87;95177.50;4992535;28;20061;-65
2021/05/13 05:55:32;;;;;;;36.15;28.85;;;12.20;82.20;;;10.28;85.62;95170.78;5009229;28;20121;-66
2021/05/13 05:57:58;;;;;;;24.73;20.63;;;12.20;82.00;;;10.33;85.49;95168.34;5007953;28;20038;-66
2021/05/13 06:00:24;;;;;;;22.25;19.13;;;12.30;81.70;;;10.39;84.02;95158.78;5024299;28;20107;-73
2021/05/13 06:02:50;;;;;;;21.98;17.75;;;12.40;81.80;;;10.46;85.19;95164.03;5007555;28;20117;-65
2021/05/13 06:05:16;;;;;;;23.23;17.88;;;12.60;80.90;;;10.51;83.91;95162.38;5009218;28;20052;-65
2021/05/13 06:07:41;;;;;;;20.17;17.88;;;12.50;81.10;;;10.57;84.04;95171.25;5025330;28;20033;-65
2021/05/13 06:10:08;;;;;;;21.27;17.48;;;12.50;81.00;;;10.62;83.76;95179.28;5023948;28;20417;-65
2021/05/13 06:12:35;;;;;;;20.52;17.77;;;12.60;81.30;;;10.68;83.81;95175.84;5005183;28;20046;-66
2021/05/13 06:15:01;;;;;;;22.13;17.83;;;12.70;80.60;;;10.75;82.90;95171.34;5001339;28;20034;-66
2021/05/13 06:17:27;;;;;;;19.23;16.10;;;12.80;80.40;;;10.86;84.07;95169.84;5007686;28;20038;-64
2021/05/13 06:19:55;;;;;;;19.60;17.50;;;12.80;79.80;;;10.94;83.13;95165.13;5006808;28;20034;-74
2021/05/13 06:22:21;;;;;;;21.83;17.10;;;13.10;79.40;;;11.04;83.09;95162.81;4991462;28;20038;-74
2021/05/13 06:24:47;;;;;;;20.75;16.90;;;13.20;78.90;;;11.10;82.14;95166.44;4975734;28;20038;-74
2021/05/13 06:27:13;;;;;;;18.55;16.55;;;13.30;78.20;;;11.20;82.11;95171.22;5014513;28;20033;-73
2021/05/13 06:29:39;;;;;;;21.48;17.73;;;13.40;77.80;;;11.25;82.27;95163.47;4991687;28;20046;-73
2021/05/13 06:32:05;;;;;;;18.35;15.90;;;13.50;77.30;;;11.35;82.82;95169.88;5007355;28;20042;-76
2021/05/13 06:34:30;;;;;;;20.08;16.90;;;13.60;77.80;;;11.38;82.30;95173.91;5007438;28;20046;-72
2021/05/13 06:36:57;;;;;;;20.02;16.25;;;13.40;78.00;;;11.43;82.09;95171.41;5007684;28;20030;-73
2021/05/13 06:39:22;;;;;;;20.35;16.42;;;13.60;77.70;;;11.45;80.86;95172.00;5023678;28;20030;-68
2021/05/13 06:41:48;;;;;;;18.92;15.57;;;13.40;77.70;;;11.47;81.35;95172.59;4972694;28;20056;-71
2021/05/13 06:44:14;;;;;;;18.02;14.68;;;13.40;77.90;;;11.52;80.71;95179.81;4990640;28;20030;-70
2021/05/13 06:46:40;;;;;;;18.58;15.55;;;13.50;77.70;;;11.55;80.57;95164.44;5007155;28;20125;-70
2021/05/13 06:49:06;;;;;;;23.10;16.15;;;13.60;77.50;;;11.61;81.10;95174.09;5024047;28;20034;-70
2021/05/13 06:51:31;;;;;;;17.13;15.32;;;13.60;76.60;;;11.65;81.18;95169.97;5009476;28;20140;-70
2021/05/13 06:53:57;;;;;;;18.67;15.25;;;13.70;77.00;;;11.70;80.71;95174.59;5009676;28;20034;-70
2021/05/13 06:56:23;;;;;;;18.02;14.70;;;13.70;76.30;;;11.75;80.20;95171.28;5004731;28;20069;-70
2021/05/13 06:58:49;;;;;;;18.35;14.23;;;13.90;76.50;;;11.81;79.80;95173.09;5020168;28;20043;-70
2021/05/13 07:01:14;;;;;;;21.40;14.82;;;13.90;75.40;;;11.88;79.82;95172.00;4991409;28;20512;-69
2021/05/13 07:03:40;;;;;;;15.77;13.50;;;14.00;75.20;;;11.96;79.31;95178.81;4991953;28;20057;-70
2021/05/13 07:06:06;;;;;;;19.08;14.85;;;13.90;75.30;;;11.99;79.30;95175.72;5024921;28;20180;-70
2021/05/13 07:08:32;;;;;;;18.05;13.63;;;14.00;75.40;;;12.09;79.60;95178.66;5004810;28;20064;-70
2021/05/13 07:10:59;;;;;;;17.77;13.88;;;14.20;75.30;;;12.19;79.34;95184.22;5021023;28;20030;-70
2021/05/13 07:13:25;;;;;;;17.88;13.77;;;14.40;75.20;;;12.29;79.41;95175.00;4988603;28;20058;-70
2021/05/13 07:15:51;;;;;;;16.10;14.05;;;14.40;74.70;;;12.39;78.97;95169.97;5004796;28;20057;-70
2021/05/13 07:18:17;;;;;;;19.92;13.35;;;14.60;74.50;;;12.48;79.07;95171.31;5021456;28;20031;-70
2021/05/13 07:20:43;;;;;;;16.45;12.98;;;14.70;74.40;;;12.55;78.42;95169.38;4991495;28;20030;-70
2021/05/13 07:23:09;;;;;;;16.00;13.02;;;14.70;73.60;;;12.66;78.44;95173.88;4988117;28;20142;-70
2021/05/13 07:25:35;;;;;;;17.95;14.93;;;14.90;73.10;;;12.73;78.00;95171.97;4988124;28;20144;-70
2021/05/13 07:28:00;;;;;;;17.48;14.15;;;14.80;72.90;;;12.79;77.87;95164.97;5016744;28;20462;-70
2021/05/13 07:30:26;;;;;;;16.25;12.45;;;14.90;72.60;;;12.81;77.53;95173.47;5027513;28;20037;-70
2021/05/13 07:32:52;;;;;;;16.73;13.02;;;14.90;72.90;;;12.81;77.38;95163.72;5003785;28;20168;-70
2021/05/13 07:35:18;;;;;;;17.48;14.57;;;14.80;72.10;;;12.83;77.76;95159.00;5011674;28;20115;-70
2021/05/13 07:37:45;;;;;;;21.23;17.48;;;14.90;72.40;;;12.89;77.47;95166.03;4995898;28;20405;-69
2021/05/13 07:40:12;;;;;;;18.08;14.77;;;15.00;72.50;;;12.95;77.07;95172.25;4995283;28;20052;-70
2021/05/13 07:42:38;;;;;;;21.77;15.40;;;15.00;72.00;;;12.97;76.93;95164.09;4979526;28;20041;-70
2021/05/13 07:45:06;;;;;;;14.95;12.85;;;15.10;72.30;;;13.00;76.51;95171.56;5012193;28;20129;-68
2021/05/13 07:47:38;;;;;;;16.42;13.02;;;15.20;71.90;;;13.01;76.93;95173.97;5011360;28;20576;-70
2021/05/13 07:50:19;;;;;;;17.02;11.80;;;15.10;71.90;;;12.99;75.33;95172.59;5011739;28;20458;-70
2021/05/13 07:52:45;;;;;;;20.00;14.23;;;15.00;71.80;;;12.96;76.10;95165.13;5011840;28;20092;-70
2021/05/13 07:55:11;;;;;;;22.65;18.08;;;15.00;71.90;;;12.95;76.53;95164.34;5011338;28;20034;-70
2021/05/13 07:57:37;;;;;;;16.45;12.63;;;15.00;71.70;;;12.94;76.21;95165.38;5011564;28;20435;-69
2021/05/13 08:00:07;;;;;;;18.02;12.88;;;14.90;71.40;;;12.95;75.24;95163.53;5011755;28;20026;-70
2021/05/13 08:02:33;;;;;;;16.33;12.13;;;15.00;72.20;;;12.93;75.55;95174.31;5027663;28;20443;-70
2021/05/13 08:04:59;;;;;;;17.60;12.73;;;14.70;71.60;;;12.88;75.40;95171.53;5011566;28;20099;-71
2021/05/13 08:07:24;;;;;;;17.13;12.00;;;14.60;72.20;;;12.88;75.79;95167.06;4994371;28;20545;-71
2021/05/13 08:09:50;;;;;;;13.30;11.48;;;14.70;71.60;;;12.90;75.96;95161.56;5010147;28;20030;-69
2021/05/13 08:12:16;;;;;;;15.27;12.13;;;14.90;71.60;;;12.97;75.19;95169.38;4987038;28;20493;-64
2021/05/13 08:14:43;;;;;;;17.23;11.35;;;15.10;71.30;;;13.03;74.94;95155.28;5010010;28;20103;-64
2021/05/13 08:17:09;;;;;;;18.38;11.65;;;15.20;70.20;;;13.13;74.72;95163.47;4994317;28;20520;-64
2021/05/13 08:19:34;;;;;;;16.63;11.80;;;15.20;70.10;;;13.23;74.41;95150.50;5006262;28;20037;-66
2021/05/13 08:22:00;;;;;;;13.27;10.88;;;15.40;68.90;;;13.30;73.97;95145.91;5016262;28;20034;-66
2021/05/13 08:24:26;;;;;;;12.90;9.65;;;15.60;68.20;;;13.41;73.68;95157.53;5006751;28;20030;-65
2021/05/13 08:26:51;;;;;;;14.35;9.48;;;15.60;68.00;;;13.49;74.38;95155.34;5010171;28;20038;-65
2021/05/13 08:29:17;;;;;;;15.15;10.55;;;15.70;67.50;;;13.62;74.32;95161.44;5009332;28;20092;-66
2021/05/13 08:31:43;;;;;;;13.95;9.65;;;16.00;68.30;;;13.71;74.27;95154.75;5009780;28;20038;-65
2021/05/13 08:34:09;;;;;;;12.40;9.52;;;15.90;67.10;;;13.78;74.08;95158.09;5008791;28;20128;-66
2021/05/13 08:36:35;;;;;;;11.65;9.90;;;15.90;67.50;;;13.78;73.49;95158.09;5024130;28;20034;-65
2021/05/13 08:39:00;;;;;;;13.13;9.25;;;15.60;66.60;;;13.76;72.97;95150.38;5011375;28;20062;-66
2021/05/13 08:41:26;;;;;;;12.57;8.48;;;15.60;66.70;;;13.81;72.99;95149.72;5010175;28;20034;-65
2021/05/13 08:43:52;;;;;;;11.80;8.63;;;15.90;66.10;;;13.88;72.69;95149.59;5007568;28;20062;-67
2021/05/13 08:46:20;;;;;;;11.45;7.95;;;16.00;66.30;;;13.92;71.57;95148.88;5026308;28;20113;-66
2021/05/13 08:48:46;;;;;;;11.40;7.97;;;16.10;65.40;;;13.94;71.03;95152.09;4975129;28;20042;-67
2021/05/13 08:51:12;;;;;;;10.80;7.80;;;16.00;65.60;;;13.97;70.99;95141.03;5002279;28;20030;-66
2021/05/13 08:53:55;;;;;;;17.65;12.65;;;16.00;65.20;;;13.97;68.68;95150.81;4993143;28;20033;-66
2021/05/13 08:56:22;;;;;;;12.15;8.50;;;15.80;65.80;;;13.93;71.64;95145.19;5025491;28;20049;-66
2021/05/13 08:58:47;;;;;;;11.70;7.80;;;15.80;66.30;;;13.92;70.52;95146.25;4992667;28;20555;-67
2021/05/13 09:01:24;;;;;;;13.50;8.77;;;15.90;65.70;;;13.88;70.94;95153.03;4993603;28;20136;-66
2021/05/13 09:03:53;;;;;;;14.35;9.90;;;15.80;66.40;;;13.88;70.41;95149.59;5009615;28;20042;-67
2021/05/13 09:06:40;;;;;;;13.75;10.20;;;15.80;66.90;;;13.92;70.19;95143.59;4994509;28;20525;-67
2021/05/13 09:09:11;;;;;;;11.95;9.00;;;16.10;66.60;;;13.99;70.35;95146.91;5009222;28;20088;-64
2021/05/13 09:11:49;;;;;;;13.05;9.52;;;16.10;66.20;;;14.10;69.36;95140.81;5009669;28;20655;-66
2021/05/13 09:14:29;;;;;;;12.95;9.15;;;16.40;65.10;;;14.24;69.79;95145.81;5009813;28;20052;-65
2021/05/13 09:16:56;;;;;;;12.67;9.43;;;16.50;64.50;;;14.38;70.91;95147.16;5009254;28;20405;-65
2021/05/13 09:19:25;;;;;;;11.80;8.65;;;16.80;64.50;;;14.56;71.03;95139.06;5009305;28;20577;-65
2021/05/13 09:22:00;;;;;;;19.10;13.75;;;17.10;62.40;;;14.75;69.07;95131.72;5020051;28;20050;-65
2021/05/13 09:25:04;;;;;;;13.57;9.45;;;17.30;62.90;;;14.92;66.78;95132.53;5009865;28;20085;-68
2021/05/13 09:27:51;;;;;;;13.90;9.45;;;17.50;62.00;;;15.03;64.80;95130.88;5008942;28;20080;-66
2021/05/13 09:30:22;;;;;;;11.85;7.20;;;17.30;60.50;;;15.10;67.80;95131.50;5008497;28;20045;-69
2021/05/13 09:32:48;;;;;;;;;;;17.40;59.60;;;15.24;64.79;95139.94;5005291;28;20041;-69
2021/05/13 09:35:19;;;;;;;14.10;8.02;;;17.60;59.00;;;15.30;64.82;95134.47;4988506;28;20400;-69
2021/05/13 09:38:08;;;;;;;11.60;8.30;;;17.60;58.40;;;15.38;64.91;95130.59;4992722;28;20108;-69
2021/05/13 09:40:39;;;;;;;11.32;6.72;;;17.60;58.50;;;15.46;65.87;95142.66;5006861;28;20382;-69
2021/05/13 09:43:13;;;;;;;10.88;6.80;;;17.70;60.10;;;15.50;64.50;95133.19;4990162;28;20022;-69
2021/05/13 09:45:55;;;;;;;7.82;6.65;;;17.70;58.40;;;15.60;63.95;95123.53;5024705;28;20034;-70
2021/05/13 09:48:41;;;;;;;13.75;9.52;;;17.90;57.70;;;15.64;62.72;95126.53;5006077;28;20046;-65
2021/05/13 09:51:31;;;;;;;7.40;5.78;;;17.90;57.80;;;15.72;61.64;95126.09;4980608;28;20034;-73
2021/05/13 09:54:17;;;;;;;7.28;5.07;;;18.00;56.00;;;15.78;62.66;95127.75;4990297;28;20458;-66
2021/05/13 09:56:48;;;;;;;7.60;5.45;;;18.10;56.60;;;15.85;65.84;95117.00;5008587;28;20060;-68
2021/05/13 09:59:31;;;;;;;9.52;5.68;;;18.10;56.80;;;15.93;62.73;95120.03;5023296;28;20053;-65
2021/05/13 10:01:58;;;;;;;8.40;6.07;;;18.10;57.20;;;15.95;65.17;95113.66;5008173;28;20505;-67
2021/05/13 10:04:25;;;;;;;9.07;6.00;;;18.10;55.50;;;15.93;65.59;95114.72;5009888;28;20038;-65
2021/05/13 10:06:51;;;;;;;7.45;5.13;;;18.00;55.90;;;16.03;64.56;95110.56;4970650;28;20038;-65
2021/05/13 10:09:17;;;;;;;9.48;6.43;;;18.10;54.60;;;16.06;63.67;95110.06;5005236;28;20057;-64
2021/05/13 10:11:44;;;;;;;9.63;6.55;;;18.10;54.80;;;16.09;63.23;95109.59;4991039;28;20034;-64
2021/05/13 10:14:13;;;;;;;7.65;5.32;;;18.10;54.30;;;16.13;62.43;95110.72;5008324;28;20390;-64
2021/05/13 10:16:38;;;;;;;6.55;4.45;;;18.20;54.10;;;16.19;62.57;95104.41;4992002;28;20421;-64
2021/05/13 10:19:17;;;;;;;9.85;4.65;;;18.50;54.60;;;16.32;60.70;95104.03;4991452;28;20030;-63